createdAt,value
2022-11-15T00:01:21.033Z,13.50
2022-11-15T00:03:53.282Z,13.47
2022-11-15T00:06:23.287Z,13.50
2022-11-15T00:08:51.741Z,12.73
2022-11-15T00:11:20.119Z,13.80
2022-11-15T00:13:48.455Z,14.60
2022-11-15T00:16:16.822Z,14.53
2022-11-15T00:18:50.315Z,13.23
2022-11-15T00:21:20.203Z,13.50
2022-11-15T00:23:49.894Z,14.90
2022-11-15T00:26:19.194Z,14.83
2022-11-15T00:28:47.761Z,14.47
2022-11-15T00:31:16.836Z,14.03
2022-11-15T00:33:46.134Z,14.17
2022-11-15T00:36:15.012Z,16.07
2022-11-15T00:38:43.715Z,13.57
2022-11-15T00:41:13.424Z,15.33
2022-11-15T00:43:44.769Z,13.63
2022-11-15T00:46:13.506Z,13.50
2022-11-15T00:48:41.844Z,13.70
2022-11-15T00:51:10.363Z,13.47
2022-11-15T00:53:39.038Z,13.07
2022-11-15T00:56:07.653Z,13.37
2022-11-15T00:58:38.078Z,13.83
2022-11-15T01:01:11.501Z,13.17
2022-11-15T01:03:41.193Z,13.17
2022-11-15T01:06:11.182Z,12.33
2022-11-15T01:08:40.921Z,12.90
2022-11-15T01:11:11.816Z,12.47
2022-11-15T01:13:42.032Z,13.73
2022-11-15T01:16:13.748Z,13.73
2022-11-15T01:18:43.021Z,13.17
2022-11-15T01:21:13.887Z,13.03
2022-11-15T01:23:42.427Z,13.77
2022-11-15T01:26:13.383Z,13.03
2022-11-15T01:28:44.452Z,13.80
2022-11-15T01:31:16.430Z,13.07
2022-11-15T01:33:45.607Z,13.93
2022-11-15T01:36:15.564Z,13.33
2022-11-15T01:38:44.396Z,12.80
2022-11-15T01:41:18.164Z,13.53
2022-11-15T01:43:49.012Z,13.87
2022-11-15T01:46:29.263Z,14.47
2022-11-15T01:49:00.646Z,13.77
2022-11-15T01:51:32.900Z,13.77
2022-11-15T01:54:04.646Z,13.70
2022-11-15T01:56:38.077Z,13.73
2022-11-15T01:59:10.227Z,13.77
2022-11-15T02:01:39.284Z,13.23
2022-11-15T02:04:13.936Z,13.13
2022-11-15T02:06:44.685Z,12.70
2022-11-15T02:09:14.504Z,13.77
2022-11-15T02:11:45.867Z,11.90
2022-11-15T02:14:22.210Z,13.10
2022-11-15T02:17:00.777Z,13.77
2022-11-15T02:19:51.367Z,13.23
2022-11-15T02:22:35.815Z,13.53
2022-11-15T02:25:21.208Z,13.07
2022-11-15T02:28:31.540Z,14.77
2022-11-15T02:31:08.367Z,14.03
2022-11-15T02:33:44.645Z,13.53
2022-11-15T02:36:20.577Z,13.63
2022-11-15T02:38:56.568Z,13.10
2022-11-15T02:41:31.382Z,13.00
2022-11-15T02:44:03.857Z,13.43
2022-11-15T02:46:56.615Z,13.53
2022-11-15T02:49:27.784Z,14.20
2022-11-15T02:51:58.073Z,13.70
2022-11-15T02:54:29.235Z,12.47
2022-11-15T02:57:01.662Z,12.90
2022-11-15T03:00:04.723Z,11.90
2022-11-15T03:02:59.011Z,12.27
2022-11-15T03:05:36.988Z,12.10
2022-11-15T03:08:12.862Z,13.00
2022-11-15T03:10:48.304Z,12.07
2022-11-15T03:13:27.206Z,13.07
2022-11-15T03:16:06.085Z,12.60
2022-11-15T03:18:39.016Z,12.17
2022-11-15T03:21:11.055Z,11.80
2022-11-15T03:23:40.720Z,12.07
2022-11-15T03:26:14.250Z,12.00
2022-11-15T03:28:49.759Z,11.93
2022-11-15T03:31:38.996Z,13.00
2022-11-15T03:34:13.516Z,12.13
2022-11-15T03:36:42.756Z,12.33
2022-11-15T03:39:14.098Z,12.23
2022-11-15T03:41:50.678Z,11.73
2022-11-15T03:44:28.172Z,12.20
2022-11-15T03:47:02.784Z,13.03
2022-11-15T03:49:36.066Z,12.37
2022-11-15T03:52:06.775Z,12.60
2022-11-15T03:54:35.287Z,12.43
2022-11-15T03:57:03.780Z,12.03
2022-11-15T03:59:32.069Z,11.87
2022-11-15T04:02:00.393Z,12.10
2022-11-15T04:04:29.226Z,12.03
2022-11-15T04:06:59.190Z,11.77
2022-11-15T04:09:27.706Z,11.07
2022-11-15T04:11:56.507Z,11.13
2022-11-15T04:14:24.882Z,10.87
2022-11-15T04:16:53.870Z,11.50
2022-11-15T04:19:39.758Z,10.93
2022-11-15T04:22:28.360Z,11.10
2022-11-15T04:24:56.986Z,11.80
2022-11-15T04:27:25.606Z,10.67
2022-11-15T04:29:53.942Z,10.67
2022-11-15T04:32:22.573Z,10.50
2022-11-15T04:34:51.199Z,10.50
2022-11-15T04:37:21.428Z,9.60
2022-11-15T04:39:50.109Z,10.63
2022-11-15T04:42:18.576Z,10.53
2022-11-15T04:44:46.983Z,10.97
2022-11-15T04:47:15.837Z,12.30
2022-11-15T04:49:44.968Z,12.13
2022-11-15T04:52:13.562Z,11.87
2022-11-15T04:54:44.243Z,10.20
2022-11-15T04:57:12.696Z,10.17
2022-11-15T04:59:41.144Z,10.80
2022-11-15T05:02:09.667Z,10.07
2022-11-15T05:04:37.052Z,9.97
2022-11-15T05:07:06.217Z,10.67
2022-11-15T05:09:34.599Z,9.87
2022-11-15T05:12:04.765Z,10.20
2022-11-15T05:14:33.419Z,9.40
2022-11-15T05:17:02.460Z,9.73
2022-11-15T05:19:31.998Z,10.47
2022-11-15T05:22:00.699Z,9.70
2022-11-15T05:24:29.701Z,10.63
2022-11-15T05:26:58.299Z,10.43
2022-11-15T05:29:28.465Z,10.23
2022-11-15T05:31:57.441Z,10.03
2022-11-15T05:34:27.839Z,9.70
2022-11-15T05:36:56.446Z,9.97
2022-11-15T05:39:27.047Z,9.40
2022-11-15T05:41:59.407Z,9.70
2022-11-15T05:44:30.074Z,9.57
2022-11-15T05:46:59.112Z,9.10
2022-11-15T05:49:32.465Z,9.23
2022-11-15T05:52:01.663Z,10.00
2022-11-15T05:54:30.188Z,9.87
2022-11-15T05:56:58.519Z,9.13
2022-11-15T05:59:27.151Z,8.97
2022-11-15T06:01:56.933Z,9.37
2022-11-15T06:04:25.437Z,9.57
2022-11-15T06:06:54.041Z,9.43
2022-11-15T06:09:22.436Z,9.10
2022-11-15T06:11:51.039Z,9.47
2022-11-15T06:14:19.711Z,9.37
2022-11-15T06:16:48.463Z,9.73
2022-11-15T06:19:18.702Z,9.80
2022-11-15T06:21:47.227Z,9.77
2022-11-15T06:24:16.334Z,9.37
2022-11-15T06:26:44.917Z,10.23
2022-11-15T06:29:13.430Z,11.13
2022-11-15T06:31:41.758Z,9.50
2022-11-15T06:34:10.208Z,11.13
2022-11-15T06:36:40.314Z,11.07
2022-11-15T06:39:20.225Z,11.47
2022-11-15T06:41:48.725Z,10.93
2022-11-15T06:44:17.549Z,10.63
2022-11-15T06:46:46.209Z,10.40
2022-11-15T06:49:14.899Z,10.67
2022-11-15T06:51:44.745Z,12.17
2022-11-15T06:54:13.177Z,12.67
2022-11-15T06:56:41.624Z,12.90
2022-11-15T06:59:10.039Z,11.23
2022-11-15T07:01:38.485Z,11.23
2022-11-15T07:04:07.845Z,10.57
2022-11-15T07:06:37.147Z,10.57
2022-11-15T07:09:07.440Z,10.17
2022-11-15T07:11:35.937Z,10.33
2022-11-15T07:14:04.317Z,9.57
2022-11-15T07:16:32.640Z,9.93
2022-11-15T07:19:01.796Z,9.07
2022-11-15T07:21:31.799Z,9.00
2022-11-15T07:24:00.231Z,9.40
2022-11-15T07:26:30.462Z,8.83
2022-11-15T07:28:58.956Z,8.77
2022-11-15T07:31:27.835Z,8.60
2022-11-15T07:33:56.176Z,9.70
2022-11-15T07:36:24.665Z,9.80
2022-11-15T07:38:52.974Z,9.03
2022-11-15T07:41:21.408Z,9.03
2022-11-15T07:43:53.543Z,9.40
2022-11-15T07:46:23.205Z,9.00
2022-11-15T07:48:52.520Z,8.83
2022-11-15T07:51:21.155Z,9.33
2022-11-15T07:53:49.552Z,9.10
2022-11-15T07:56:18.186Z,9.50
2022-11-15T07:58:48.181Z,8.83
2022-11-15T08:01:18.436Z,9.13
2022-11-15T08:03:48.123Z,9.90
2022-11-15T08:06:17.142Z,9.00
2022-11-15T08:08:45.874Z,10.47
2022-11-15T08:11:14.344Z,10.10
2022-11-15T08:13:42.889Z,10.13
2022-11-15T08:16:12.904Z,9.87
2022-11-15T08:18:43.179Z,10.33
2022-11-15T08:21:18.137Z,9.40
2022-11-15T08:23:47.790Z,8.80
2022-11-15T08:26:16.385Z,9.20
2022-11-15T08:28:47.966Z,9.30
2022-11-15T08:31:17.849Z,8.50
2022-11-15T08:33:48.553Z,8.17
2022-11-15T08:36:18.735Z,8.77
2022-11-15T08:38:47.413Z,8.37
2022-11-15T08:41:24.419Z,8.90
2022-11-15T08:43:53.124Z,9.30
2022-11-15T08:46:21.422Z,8.33
2022-11-15T08:48:51.601Z,8.97
2022-11-15T08:51:20.297Z,9.30
2022-11-15T08:53:49.673Z,9.03
2022-11-15T08:56:18.084Z,8.73
2022-11-15T08:58:47.824Z,8.83
2022-11-15T09:01:21.210Z,9.13
2022-11-15T09:03:51.317Z,8.37
2022-11-15T09:06:19.665Z,8.33
2022-11-15T09:08:48.877Z,8.27
2022-11-15T09:11:21.328Z,8.17
2022-11-15T09:13:50.410Z,8.43
2022-11-15T09:16:19.086Z,7.83
2022-11-15T09:18:48.294Z,7.37
2022-11-15T09:21:18.133Z,7.37
2022-11-15T09:23:46.985Z,7.27
2022-11-15T09:26:15.516Z,7.00
2022-11-15T09:28:43.963Z,7.03
2022-11-15T09:31:13.615Z,6.90
2022-11-15T09:33:46.217Z,6.80
2022-11-15T09:36:15.158Z,7.50
2022-11-15T09:38:45.818Z,6.83
2022-11-15T09:41:39.417Z,6.33
2022-11-15T09:44:25.339Z,6.90
2022-11-15T09:47:05.007Z,7.00
2022-11-15T09:49:33.968Z,7.00
2022-11-15T09:52:03.007Z,6.77
2022-11-15T09:57:32.007Z,5.90
2022-11-15T10:03:14.381Z,5.53
2022-11-15T10:05:45.057Z,5.83
2022-11-15T10:08:24.856Z,5.80
2022-11-15T10:11:22.748Z,4.97
2022-11-15T10:13:50.322Z,5.90
2022-11-15T10:16:43.134Z,5.00
2022-11-15T10:19:21.648Z,4.90
2022-11-15T10:22:02.437Z,4.60
2022-11-15T10:24:36.333Z,4.43
2022-11-15T10:27:12.700Z,4.60
2022-11-15T10:29:46.187Z,4.30
2022-11-15T10:32:16.263Z,4.37
2022-11-15T10:34:45.166Z,4.43
2022-11-15T10:37:13.843Z,4.40
2022-11-15T10:39:42.433Z,4.77
2022-11-15T10:42:23.751Z,4.37
2022-11-15T10:44:53.978Z,4.57
2022-11-15T10:47:28.601Z,4.53
2022-11-15T10:50:02.814Z,4.90
2022-11-15T10:52:33.418Z,4.50
2022-11-15T10:55:07.326Z,4.30
2022-11-15T10:57:40.904Z,4.33
2022-11-15T11:00:39.587Z,4.47
2022-11-15T11:03:22.572Z,4.50
2022-11-15T11:06:04.514Z,4.70
2022-11-15T11:08:35.308Z,4.77
2022-11-15T11:11:05.823Z,3.87
2022-11-15T11:13:40.059Z,4.70
2022-11-15T11:16:28.268Z,4.60
2022-11-15T11:19:04.012Z,4.20
2022-11-15T11:21:45.645Z,3.73
2022-11-15T11:24:26.559Z,4.20
2022-11-15T11:27:18.720Z,4.20
2022-11-15T11:30:03.628Z,4.37
2022-11-15T11:32:52.539Z,4.30
2022-11-15T11:35:30.460Z,3.93
2022-11-15T11:38:10.941Z,3.83
2022-11-15T11:40:46.424Z,3.83
2022-11-15T11:43:24.012Z,3.87
2022-11-15T11:46:14.780Z,3.53
2022-11-15T11:48:46.091Z,3.90
2022-11-15T11:51:20.652Z,3.90
2022-11-15T11:53:56.714Z,4.40
2022-11-15T11:56:29.498Z,3.87
2022-11-15T11:59:06.473Z,4.00
2022-11-15T12:01:41.920Z,4.10
2022-11-15T12:04:16.194Z,3.80
2022-11-15T12:06:50.277Z,3.67
2022-11-15T12:09:23.967Z,3.63
2022-11-15T12:11:57.967Z,3.80
2022-11-15T12:14:35.208Z,3.60
2022-11-15T12:17:05.167Z,3.60
2022-11-15T12:19:34.146Z,4.03
2022-11-15T12:22:07.179Z,3.83
2022-11-15T12:24:41.592Z,3.53
2022-11-15T12:27:25.100Z,3.60
2022-11-15T12:29:59.500Z,3.60
2022-11-15T12:32:33.994Z,3.40
2022-11-15T12:35:04.266Z,3.73
2022-11-15T12:37:51.554Z,3.70
2022-11-15T12:40:42.734Z,3.27
2022-11-15T12:43:39.535Z,3.80
2022-11-15T12:46:14.553Z,3.10
2022-11-15T12:48:56.629Z,3.60
2022-11-15T12:52:08.210Z,3.63
2022-11-15T12:55:02.987Z,3.33
2022-11-15T12:57:34.741Z,3.03
2022-11-15T13:00:07.865Z,3.23
2022-11-15T13:02:40.133Z,3.20
2022-11-15T13:06:07.385Z,3.13
2022-11-15T13:08:40.947Z,3.60
2022-11-15T13:11:43.162Z,2.97
2022-11-15T13:14:57.073Z,2.90
2022-11-15T13:17:42.314Z,3.30
2022-11-15T13:20:25.116Z,3.30
2022-11-15T13:22:55.764Z,3.67
2022-11-15T13:25:49.084Z,3.17
2022-11-15T13:28:26.557Z,3.10
2022-11-15T13:30:56.593Z,3.43
2022-11-15T13:33:32.966Z,3.83
2022-11-15T13:36:08.484Z,3.00
2022-11-15T13:38:38.790Z,3.10
2022-11-15T13:41:21.379Z,3.10
2022-11-15T13:43:50.957Z,3.00
2022-11-15T13:46:22.228Z,3.27
2022-11-15T13:48:55.155Z,3.00
2022-11-15T13:51:30.809Z,3.00
2022-11-15T13:54:03.793Z,3.30
2022-11-15T13:56:35.004Z,3.50
2022-11-15T13:59:11.115Z,3.40
2022-11-15T14:01:43.718Z,3.40
2022-11-15T14:04:20.125Z,3.30
2022-11-15T14:06:52.705Z,3.50
2022-11-15T14:09:34.221Z,3.70
2022-11-15T14:12:21.995Z,3.70
2022-11-15T14:14:50.545Z,3.67
2022-11-15T14:17:25.016Z,3.53
2022-11-15T14:19:54.002Z,3.33
2022-11-15T14:22:27.128Z,3.30
2022-11-15T14:25:17.187Z,3.20
2022-11-15T14:28:06.888Z,3.23
2022-11-15T14:30:35.177Z,3.50
2022-11-15T14:33:06.179Z,3.50
2022-11-15T14:35:35.832Z,3.97
2022-11-15T14:38:06.198Z,3.47
2022-11-15T14:40:34.990Z,3.43
2022-11-15T14:43:03.475Z,3.47
2022-11-15T14:45:32.430Z,3.67
2022-11-15T14:48:01.207Z,3.40
2022-11-15T14:50:29.980Z,3.27
2022-11-15T14:52:58.520Z,3.10
2022-11-15T14:55:30.738Z,3.43
2022-11-15T14:57:59.229Z,3.20
2022-11-15T15:00:32.327Z,2.93
2022-11-15T15:03:05.520Z,3.20
2022-11-15T15:05:36.965Z,3.57
2022-11-15T15:08:06.036Z,3.50
2022-11-15T15:10:40.551Z,3.60
2022-11-15T15:13:17.632Z,3.73
2022-11-15T15:15:46.382Z,3.90
2022-11-15T15:18:14.891Z,3.73
2022-11-15T15:20:47.094Z,3.60
2022-11-15T15:23:20.778Z,3.70
2022-11-15T15:25:50.826Z,3.80
2022-11-15T15:28:20.277Z,3.93
2022-11-15T15:30:48.726Z,6.03
2022-11-15T15:33:17.421Z,5.80
2022-11-15T15:35:48.134Z,5.30
2022-11-15T15:38:16.826Z,5.50
2022-11-15T15:40:45.291Z,15.53
2022-11-15T15:43:14.980Z,6.23
2022-11-15T15:45:44.468Z,8.67
2022-11-15T15:48:15.451Z,11.17
2022-11-15T15:50:45.070Z,8.57
2022-11-15T15:53:14.816Z,12.60
2022-11-15T15:55:43.756Z,10.70
2022-11-15T15:58:13.944Z,8.40
2022-11-15T16:00:42.871Z,8.83
2022-11-15T16:03:11.284Z,9.47
2022-11-15T16:05:40.395Z,11.73
2022-11-15T16:08:18.434Z,11.70
2022-11-15T16:10:47.443Z,10.90
2022-11-15T16:13:18.428Z,14.40
2022-11-15T16:15:49.935Z,9.73
2022-11-15T16:18:19.926Z,8.43
2022-11-15T16:20:51.103Z,9.00
2022-11-15T16:23:24.527Z,9.67
2022-11-15T16:25:56.601Z,7.80
2022-11-15T16:28:29.692Z,7.50
2022-11-15T16:31:06.071Z,8.97
2022-11-15T16:33:35.866Z,8.93
2022-11-15T16:36:05.301Z,7.70
2022-11-15T16:38:34.538Z,7.10
2022-11-15T16:41:03.400Z,7.10
2022-11-15T16:43:33.629Z,7.97
2022-11-15T16:46:13.383Z,7.53
2022-11-15T16:48:42.150Z,8.90
2022-11-15T16:51:11.681Z,10.40
2022-11-15T16:53:40.834Z,11.53
2022-11-15T16:56:22.046Z,18.17
2022-11-15T16:58:51.794Z,15.93
2022-11-15T17:01:23.690Z,14.50
2022-11-15T17:03:54.390Z,19.90
2022-11-15T17:06:23.579Z,15.70
2022-11-15T17:08:52.435Z,13.70
2022-11-15T17:11:23.517Z,12.97
2022-11-15T17:13:59.059Z,10.37
2022-11-15T17:16:28.056Z,12.93
2022-11-15T17:18:57.023Z,9.97
2022-11-15T17:21:32.591Z,12.13
2022-11-15T17:24:02.114Z,13.13
2022-11-15T17:26:33.968Z,20.37
2022-11-15T17:29:07.918Z,17.67
2022-11-15T17:31:38.158Z,16.23
2022-11-15T17:34:07.547Z,13.30
2022-11-15T17:36:36.137Z,19.57
2022-11-15T17:39:04.889Z,14.37
2022-11-15T17:41:33.820Z,12.10
2022-11-15T17:44:03.769Z,9.70
2022-11-15T17:46:36.325Z,9.83
2022-11-15T17:49:05.047Z,9.60
2022-11-15T17:51:34.248Z,10.73
2022-11-15T17:54:02.846Z,8.87
2022-11-15T17:56:33.011Z,8.27
2022-11-15T17:59:02.205Z,7.87
2022-11-15T18:01:33.912Z,7.30
2022-11-15T18:04:04.694Z,7.73
2022-11-15T18:06:35.364Z,10.80
2022-11-15T18:09:05.700Z,9.80
2022-11-15T18:11:38.391Z,10.33
2022-11-15T18:14:09.643Z,7.47
2022-11-15T18:16:40.649Z,6.17
2022-11-15T18:19:13.194Z,6.70
2022-11-15T18:22:00.079Z,7.23
2022-11-15T18:24:31.548Z,7.30
2022-11-15T18:27:01.593Z,7.73
2022-11-15T18:29:30.072Z,7.87
2022-11-15T18:31:59.992Z,6.70
2022-11-15T18:34:32.239Z,7.60
2022-11-15T18:37:03.483Z,7.23
2022-11-15T18:39:32.314Z,7.50
2022-11-15T18:42:01.880Z,9.13
2022-11-15T18:44:31.163Z,9.13
2022-11-15T18:47:00.906Z,9.23
2022-11-15T18:49:29.892Z,9.40
2022-11-15T18:51:58.287Z,10.27
2022-11-15T18:54:31.020Z,10.90
2022-11-15T18:57:00.874Z,9.63
2022-11-15T18:59:30.073Z,9.77
2022-11-15T19:02:00.043Z,9.93
2022-11-15T19:04:29.486Z,10.10
2022-11-15T19:06:58.691Z,9.97
2022-11-15T19:09:33.020Z,11.10
2022-11-15T19:12:02.231Z,9.90
2022-11-15T19:14:31.134Z,11.40
2022-11-15T19:17:00.897Z,10.63
2022-11-15T19:19:29.479Z,9.97
2022-11-15T19:21:58.297Z,11.03
2022-11-15T19:24:27.442Z,11.13
2022-11-15T19:26:56.378Z,11.40
2022-11-15T19:29:25.815Z,11.10
2022-11-15T19:31:54.385Z,12.30
2022-11-15T19:34:24.116Z,11.37
2022-11-15T19:36:52.548Z,11.83
2022-11-15T19:39:21.426Z,10.73
2022-11-15T19:41:50.094Z,9.03
2022-11-15T19:44:19.092Z,8.53
2022-11-15T19:46:47.839Z,9.00
2022-11-15T19:49:16.467Z,9.03
2022-11-15T19:51:48.374Z,7.30
2022-11-15T19:54:17.677Z,7.93
2022-11-15T19:56:46.120Z,7.20
2022-11-15T19:59:15.361Z,8.00
2022-11-15T20:01:43.705Z,7.60
2022-11-15T20:04:12.067Z,7.37
2022-11-15T20:06:41.793Z,7.30
2022-11-15T20:09:14.233Z,6.97
2022-11-15T20:11:43.414Z,7.13
2022-11-15T20:14:13.310Z,7.67
2022-11-15T20:16:43.497Z,7.83
2022-11-15T20:19:12.771Z,7.83
2022-11-15T20:21:41.336Z,8.63
2022-11-15T20:24:11.380Z,8.20
2022-11-15T20:26:39.892Z,10.43
2022-11-15T20:29:09.980Z,9.73
2022-11-15T20:31:38.542Z,9.67
2022-11-15T20:34:07.363Z,10.70
2022-11-15T20:36:35.714Z,10.43
2022-11-15T20:39:04.808Z,10.03
2022-11-15T20:41:35.041Z,10.40
2022-11-15T20:44:03.992Z,9.77
2022-11-15T20:46:32.338Z,9.33
2022-11-15T20:49:01.064Z,9.03
2022-11-15T20:51:29.593Z,8.97
2022-11-15T20:53:59.373Z,8.43
2022-11-15T20:56:27.851Z,8.53
2022-11-15T20:58:57.942Z,8.37
2022-11-15T21:01:26.910Z,8.37
2022-11-15T21:03:56.705Z,8.40
2022-11-15T21:06:26.402Z,8.57
2022-11-15T21:09:13.919Z,8.20
2022-11-15T21:12:00.195Z,7.83
2022-11-15T21:14:30.294Z,7.73
2022-11-15T21:16:59.469Z,7.83
2022-11-15T21:19:34.053Z,7.30
2022-11-15T21:22:06.145Z,7.67
2022-11-15T21:24:34.505Z,7.13
2022-11-15T21:27:03.072Z,6.73
2022-11-15T21:29:39.360Z,6.47
2022-11-15T21:32:09.367Z,6.30
2022-11-15T21:34:38.843Z,5.87
2022-11-15T21:37:07.560Z,6.13
2022-11-15T21:39:36.366Z,6.07
2022-11-15T21:42:05.188Z,6.17
2022-11-15T21:44:35.130Z,6.53
2022-11-15T21:47:03.555Z,6.70
2022-11-15T21:49:32.033Z,6.90
2022-11-15T21:52:00.607Z,6.90
2022-11-15T21:54:29.078Z,7.77
2022-11-15T21:56:58.571Z,8.60
2022-11-15T21:59:27.128Z,7.27
2022-11-15T22:02:14.681Z,8.90
2022-11-15T22:04:43.178Z,8.03
2022-11-15T22:07:11.735Z,8.30
2022-11-15T22:09:40.769Z,8.90
2022-11-15T22:12:09.277Z,7.97
2022-11-15T22:14:37.567Z,7.70
2022-11-15T22:17:14.777Z,7.90
2022-11-15T22:19:52.312Z,7.67
2022-11-15T22:22:21.712Z,8.00
2022-11-15T22:24:50.080Z,8.17
2022-11-15T22:27:18.642Z,7.77
2022-11-15T22:29:47.013Z,8.60
2022-11-15T22:32:16.923Z,7.40
2022-11-15T22:34:46.299Z,6.47
2022-11-15T22:37:20.473Z,7.20
2022-11-15T22:39:49.753Z,7.07
2022-11-15T22:42:22.299Z,6.87
2022-11-15T22:44:52.157Z,7.10
2022-11-15T22:47:22.145Z,6.80
2022-11-15T22:49:51.227Z,6.97
2022-11-15T22:52:19.844Z,6.60
2022-11-15T22:54:48.835Z,6.90
2022-11-15T22:57:17.196Z,6.53
2022-11-15T22:59:46.036Z,6.33
2022-11-15T23:02:14.417Z,6.93
2022-11-15T23:04:44.919Z,6.77
2022-11-15T23:07:13.990Z,6.40
2022-11-15T23:09:46.445Z,6.60
2022-11-15T23:12:35.046Z,6.63
2022-11-15T23:15:03.566Z,6.50
2022-11-15T23:17:32.397Z,6.97
2022-11-15T23:20:22.125Z,6.90
2022-11-15T23:22:50.610Z,6.87
2022-11-15T23:25:19.027Z,7.27
2022-11-15T23:27:47.923Z,7.23
2022-11-15T23:30:42.294Z,6.60
2022-11-15T23:33:32.904Z,6.90
2022-11-15T23:36:02.655Z,6.60
2022-11-15T23:38:34.028Z,7.37
2022-11-15T23:41:02.567Z,7.10
2022-11-15T23:43:31.587Z,6.70
2022-11-15T23:46:01.389Z,7.37
2022-11-15T23:48:30.180Z,6.87
2022-11-15T23:50:59.051Z,7.87
2022-11-15T23:53:29.024Z,8.33
2022-11-15T23:55:59.062Z,7.70
2022-11-15T23:58:27.757Z,7.67
